This is the latest recevied weather packets stored in our database for station/object HB3YKO-13. If no packets are shown the sender has not sent any weather packets the latest 10 day(s).
| Time | Temp. | Humidity | Pressure | Rain* | Wind** | Luminosity | Snow |
|---|---|---|---|---|---|---|---|
| 1778159074 | -9.44° C | 50% | 0 hPa | 0 mm | - | - | - |
| 1778158774 | -9.44° C | 49% | 0 hPa | 0 mm | - | - | - |
| 1778158474 | -9.44° C | 49% | 0 hPa | 0 mm | - | - | - |
| 1778158174 | -9.44° C | 47% | 0 hPa | 0 mm | - | - | - |
| 1778157874 | -17.78° C | 100% | 0 hPa | 0 mm | - | - | - |
| 1778157575 | -9.44° C | 47% | 0 hPa | 0 mm | - | - | - |
| 1778157274 | -10° C | 44% | 0 hPa | 0 mm | - | - | - |
| 1778156974 | -12.22° C | 46% | 0 hPa | 0 mm | - | - | - |
| 1778156675 | -12.22° C | 49% | 0 hPa | 0 mm | - | - | - |
| 1778156375 | -13.33° C | 50% | 0 hPa | 0 mm | - | - | - |
| 1778156075 | -13.89° C | 51% | 0 hPa | 0 mm | - | - | - |
| 1778155775 | -14.44° C | 52% | 0 hPa | 0 mm | - | - | - |
| 1778155475 | -7.78° C | 50% | 0 hPa | 0 mm | - | - | - |
| 1778155174 | -7.22° C | 50% | 0 hPa | 0 mm | - | - | - |
| 1778154875 | -5.56° C | 51% | 0 hPa | 0 mm | - | - | - |
| 1778154575 | -10.56° C | 52% | 0 hPa | 0 mm | - | - | - |
| 1778154275 | -6.67° C | 51% | 0 hPa | 0 mm | - | - | - |
| 1778153975 | -10° C | 53% | 0 hPa | 0 mm | - | - | - |
| 1778153675 | -11.11° C | 55% | 0 hPa | 0 mm | - | - | - |
| 1778153375 | -11.11° C | 51% | 0 hPa | 0 mm | - | - | - |
| 1778153075 | -12.78° C | 50% | 0 hPa | 0 mm | - | - | - |
| 1778152775 | -13.89° C | 50% | 0 hPa | 0 mm | - | - | - |
| 1778152475 | -13.89° C | 58% | 0 hPa | 0 mm | - | - | - |
| 1778152175 | -11.11° C | 60% | 0 hPa | 0 mm | - | - | - |
| 1778151875 | -10.56° C | 60% | 0 hPa | 0 mm | - | - | - |
* Rain latest hour (hover to see other rain measurements)
** Current wind speed in m/s (hover to see current wind gust speed)